createdAt,value
2018-01-08T00:02:08.163Z,16.25
2018-01-08T00:04:38.666Z,16.77
2018-01-08T00:07:07.391Z,16.55
2018-01-08T00:09:35.443Z,18.05
2018-01-08T00:12:12.721Z,14.30
2018-01-08T00:14:40.569Z,13.35
2018-01-08T00:17:15.112Z,15.48
2018-01-08T00:19:42.881Z,16.45
2018-01-08T00:22:11.718Z,16.60
2018-01-08T00:24:39.746Z,14.90
2018-01-08T00:27:14.225Z,15.35
2018-01-08T00:29:41.837Z,16.70
2018-01-08T00:32:12.861Z,13.88
2018-01-08T00:34:41.576Z,18.12
2018-01-08T00:37:09.117Z,15.15
2018-01-08T00:39:38.226Z,16.98
2018-01-08T00:42:07.530Z,16.73
2018-01-08T00:44:51.055Z,17.45
2018-01-08T00:47:20.475Z,16.92
2018-01-08T00:49:47.991Z,15.65
2018-01-08T00:52:15.532Z,15.82
2018-01-08T00:54:43.044Z,18.25
2018-01-08T00:57:10.563Z,16.83
2018-01-08T00:59:38.103Z,14.75
2018-01-08T01:02:05.621Z,16.62
2018-01-08T01:04:33.189Z,21.70
2018-01-08T01:07:00.736Z,18.67
2018-01-08T01:09:28.264Z,17.58
2018-01-08T01:11:55.824Z,16.85
2018-01-08T01:14:23.380Z,17.98
2018-01-08T01:16:50.895Z,19.45
2018-01-08T01:19:18.430Z,19.55
2018-01-08T01:21:45.968Z,20.35
2018-01-08T01:24:14.297Z,18.67
2018-01-08T01:26:41.824Z,17.95
2018-01-08T01:29:09.371Z,20.48
2018-01-08T01:31:36.917Z,21.80
2018-01-08T01:34:04.433Z,21.05
2018-01-08T01:36:31.981Z,20.80
2018-01-08T01:38:59.533Z,20.23
2018-01-08T01:41:27.075Z,19.00
2018-01-08T01:43:54.579Z,17.87
2018-01-08T01:46:22.116Z,20.42
2018-01-08T01:48:49.651Z,21.05
2018-01-08T01:51:17.177Z,19.52
2018-01-08T01:53:44.700Z,20.27
2018-01-08T01:56:12.245Z,21.35
2018-01-08T01:58:39.779Z,20.45
2018-01-08T02:01:08.084Z,24.02
2018-01-08T02:03:35.596Z,20.33
2018-01-08T02:06:03.125Z,19.58
2018-01-08T02:08:30.665Z,21.70
2018-01-08T02:10:58.176Z,21.27
2018-01-08T02:13:26.478Z,20.55
2018-01-08T02:15:54.014Z,20.85
2018-01-08T02:18:22.335Z,20.27
2018-01-08T02:20:49.862Z,19.02
2018-01-08T02:23:18.172Z,19.05
2018-01-08T02:25:45.707Z,22.02
2018-01-08T02:28:13.220Z,22.60
2018-01-08T02:30:40.777Z,22.85
2018-01-08T02:33:08.301Z,22.45
2018-01-08T02:35:35.834Z,19.05
2018-01-08T02:38:04.136Z,23.48
2018-01-08T02:40:31.652Z,23.75
2018-01-08T02:42:59.958Z,21.87
2018-01-08T02:45:27.492Z,21.25
2018-01-08T02:47:55.827Z,23.12
2018-01-08T02:50:23.370Z,26.45
2018-01-08T02:52:50.929Z,22.83
2018-01-08T02:55:18.468Z,22.98
2018-01-08T02:57:45.983Z,23.23
2018-01-08T03:00:13.558Z,21.87
2018-01-08T03:02:41.075Z,23.98
2018-01-08T03:05:08.595Z,22.58
2018-01-08T03:07:36.895Z,23.20
2018-01-08T03:10:04.411Z,21.52
2018-01-08T03:12:32.723Z,22.33
2018-01-08T03:15:00.263Z,23.38
2018-01-08T03:17:28.559Z,27.25
2018-01-08T03:19:56.091Z,22.23
2018-01-08T03:22:24.396Z,23.87
2018-01-08T03:24:51.915Z,21.25
2018-01-08T03:27:19.425Z,22.70
2018-01-08T03:29:46.985Z,26.70
2018-01-08T03:32:14.506Z,23.10
2018-01-08T03:34:42.044Z,29.67
2018-01-08T03:37:09.596Z,26.55
2018-01-08T03:39:37.108Z,24.70
2018-01-08T03:42:04.660Z,24.48
2018-01-08T03:44:32.168Z,23.73
2018-01-08T03:46:59.695Z,24.95
2018-01-08T03:49:27.209Z,25.55
2018-01-08T03:51:55.500Z,25.60
2018-01-08T03:54:23.815Z,26.23
2018-01-08T03:56:51.339Z,25.17
2018-01-08T03:59:18.880Z,24.83
2018-01-08T04:01:47.183Z,25.67
2018-01-08T04:04:14.685Z,25.20
2018-01-08T04:06:42.214Z,24.45
2018-01-08T04:09:09.729Z,23.42
2018-01-08T04:11:38.046Z,27.45
2018-01-08T04:14:05.556Z,25.90
2018-01-08T04:16:33.058Z,26.23
2018-01-08T04:19:00.606Z,29.37
2018-01-08T04:21:28.111Z,23.87
2018-01-08T04:23:55.651Z,23.95
2018-01-08T04:26:23.158Z,27.30
2018-01-08T04:28:51.427Z,30.23
2018-01-08T04:31:18.995Z,24.60
2018-01-08T04:33:47.284Z,28.60
2018-01-08T04:36:15.581Z,27.35
2018-01-08T04:38:43.128Z,30.30
2018-01-08T04:41:10.650Z,29.27
2018-01-08T04:43:38.176Z,29.73
2018-01-08T04:46:05.733Z,26.12
2018-01-08T04:48:33.252Z,27.70
2018-01-08T04:51:00.808Z,26.45
2018-01-08T04:53:29.121Z,27.48
2018-01-08T04:55:56.707Z,30.67
2018-01-08T04:58:24.246Z,32.03
2018-01-08T05:00:51.771Z,26.85
2018-01-08T05:03:20.160Z,28.90
2018-01-08T05:05:47.703Z,24.33
2018-01-08T05:08:15.997Z,29.73
2018-01-08T05:10:43.539Z,28.45
2018-01-08T05:13:11.075Z,28.65
2018-01-08T05:15:38.611Z,26.50
2018-01-08T05:18:06.150Z,31.45
2018-01-08T05:20:33.665Z,28.92
2018-01-08T05:23:01.979Z,29.77
2018-01-08T05:25:29.509Z,29.02
2018-01-08T05:27:57.786Z,29.23
2018-01-08T05:30:26.084Z,26.40
2018-01-08T05:32:53.631Z,32.17
2018-01-08T05:35:21.179Z,29.90
2018-01-08T05:37:48.709Z,33.10
2018-01-08T05:40:16.240Z,28.60
2018-01-08T05:42:43.789Z,37.22
2018-01-08T05:45:11.314Z,31.42
2018-01-08T05:47:39.625Z,29.63
2018-01-08T05:50:07.164Z,31.40
2018-01-08T05:52:34.672Z,28.85
2018-01-08T05:55:02.226Z,30.35
2018-01-08T05:57:29.880Z,38.45
2018-01-08T05:59:57.457Z,31.20
2018-01-08T06:02:24.978Z,35.58
2018-01-08T06:04:52.503Z,35.35
2018-01-08T06:07:20.817Z,35.83
2018-01-08T06:09:48.325Z,29.98
2018-01-08T06:12:15.832Z,31.70
2018-01-08T06:14:43.363Z,34.30
2018-01-08T06:17:10.892Z,29.75
2018-01-08T06:19:38.453Z,32.90
2018-01-08T06:22:05.987Z,29.90
2018-01-08T06:24:33.513Z,33.63
2018-01-08T06:27:01.026Z,38.90
2018-01-08T06:29:28.552Z,34.47
2018-01-08T06:31:56.127Z,38.53
2018-01-08T06:34:23.683Z,35.95
2018-01-08T06:36:51.193Z,38.72
2018-01-08T06:39:18.719Z,33.20
2018-01-08T06:41:46.248Z,36.33
2018-01-08T06:44:13.780Z,37.50
2018-01-08T06:46:42.884Z,39.45
2018-01-08T06:49:10.404Z,34.55
2018-01-08T06:51:37.996Z,35.08
2018-01-08T06:54:05.542Z,35.70
2018-01-08T06:56:33.274Z,39.72
2018-01-08T06:59:00.860Z,37.53
2018-01-08T07:01:28.417Z,37.03
2018-01-08T07:03:56.743Z,36.45
2018-01-08T07:06:24.444Z,34.88
2018-01-08T07:08:52.718Z,39.90
2018-01-08T07:11:21.000Z,39.42
2018-01-08T07:13:49.300Z,41.50
2018-01-08T07:16:16.834Z,35.67
2018-01-08T07:18:45.192Z,36.38
2018-01-08T07:21:13.851Z,40.70
2018-01-08T07:23:41.408Z,38.83
2018-01-08T07:26:08.948Z,39.28
2018-01-08T07:28:36.486Z,37.45
2018-01-08T07:31:04.044Z,37.67
2018-01-08T07:33:32.362Z,35.35
2018-01-08T07:35:59.897Z,36.20
2018-01-08T07:38:27.416Z,40.92
2018-01-08T07:40:55.019Z,39.13
2018-01-08T07:43:22.522Z,39.65
2018-01-08T07:45:50.075Z,39.17
2018-01-08T07:48:17.606Z,37.00
2018-01-08T07:50:45.156Z,38.40
2018-01-08T07:53:12.662Z,36.28
2018-01-08T07:55:40.172Z,40.63
2018-01-08T07:58:07.704Z,36.42
2018-01-08T08:00:35.239Z,37.92
2018-01-08T08:03:02.759Z,43.45
2018-01-08T08:05:30.291Z,38.83
2018-01-08T08:07:57.825Z,39.40
2018-01-08T08:10:25.380Z,38.95
2018-01-08T08:12:52.906Z,37.97
2018-01-08T08:15:20.453Z,39.97
2018-01-08T08:17:47.980Z,37.88
2018-01-08T08:20:15.537Z,44.45
2018-01-08T08:22:43.063Z,37.95
2018-01-08T08:25:10.601Z,39.60
2018-01-08T08:27:38.125Z,37.53
2018-01-08T08:30:05.671Z,38.78
2018-01-08T08:32:33.967Z,40.55
2018-01-08T08:35:01.536Z,42.45
2018-01-08T08:37:29.075Z,41.92
2018-01-08T08:39:57.417Z,42.58
2018-01-08T08:42:24.955Z,37.88
2018-01-08T08:44:52.545Z,38.67
2018-01-08T08:47:20.081Z,38.55
2018-01-08T08:49:47.577Z,41.95
2018-01-08T08:52:15.880Z,36.92
2018-01-08T08:54:43.402Z,36.13
2018-01-08T08:57:11.725Z,36.08
2018-01-08T08:59:39.227Z,41.60
2018-01-08T09:02:06.736Z,39.92
2018-01-08T09:04:34.282Z,39.20
2018-01-08T09:07:01.798Z,36.03
2018-01-08T09:09:29.321Z,41.10
2018-01-08T09:11:56.859Z,35.60
2018-01-08T09:14:25.415Z,34.83
2018-01-08T09:16:53.719Z,36.47
2018-01-08T09:19:21.252Z,39.30
2018-01-08T09:21:49.571Z,36.88
2018-01-08T09:24:17.105Z,35.38
2018-01-08T09:26:44.632Z,35.70
2018-01-08T09:29:12.157Z,37.57
2018-01-08T09:31:39.696Z,37.50
2018-01-08T09:34:07.231Z,36.33
2018-01-08T09:36:35.998Z,38.45
2018-01-08T09:39:03.530Z,36.35
2018-01-08T09:41:31.112Z,35.67
2018-01-08T09:43:58.634Z,35.47
2018-01-08T09:46:26.154Z,35.17
2018-01-08T09:48:53.692Z,40.35
2018-01-08T09:51:21.221Z,36.92
2018-01-08T09:53:48.798Z,39.78
2018-01-08T09:56:16.307Z,41.67
2018-01-08T09:58:43.817Z,35.30
2018-01-08T10:01:11.351Z,35.55
2018-01-08T10:03:50.713Z,37.33
2018-01-08T10:06:30.066Z,37.45
2018-01-08T10:09:09.493Z,34.00
2018-01-08T10:11:49.052Z,36.23
2018-01-08T10:14:29.228Z,34.47
2018-01-08T10:17:08.643Z,34.07
2018-01-08T10:22:34.693Z,32.50
2018-01-08T10:25:02.995Z,32.00
2018-01-08T10:27:30.539Z,38.40
2018-01-08T10:29:58.070Z,33.53
2018-01-08T10:32:25.600Z,32.90
2018-01-08T10:34:53.126Z,31.87
2018-01-08T10:37:20.637Z,34.80
2018-01-08T10:39:48.187Z,27.97
2018-01-08T10:42:21.261Z,31.63
2018-01-08T10:44:54.550Z,32.10
2018-01-08T10:47:27.796Z,33.13
2018-01-08T10:50:01.893Z,32.63
2018-01-08T10:52:29.481Z,31.90
2018-01-08T10:54:57.855Z,33.83
2018-01-08T10:57:26.163Z,34.20
2018-01-08T10:59:54.449Z,33.30
2018-01-08T11:02:27.651Z,31.10
2018-01-08T11:04:55.193Z,30.30
2018-01-08T11:07:22.700Z,35.13
2018-01-08T11:09:51.030Z,30.77
2018-01-08T11:12:18.560Z,29.77
2018-01-08T11:14:46.078Z,31.67
2018-01-08T11:17:13.659Z,30.30
2018-01-08T11:19:41.990Z,32.37
2018-01-08T11:22:09.550Z,29.30
2018-01-08T11:24:37.078Z,30.30
2018-01-08T11:27:04.603Z,29.00
2018-01-08T11:29:32.147Z,28.10
2018-01-08T11:31:59.667Z,35.07
2018-01-08T11:34:27.200Z,31.47
2018-01-08T11:36:54.706Z,29.00
2018-01-08T11:39:22.457Z,28.97
2018-01-08T11:41:50.179Z,30.33
2018-01-08T11:44:18.467Z,31.23
2018-01-08T11:46:45.979Z,33.27
2018-01-08T11:49:13.541Z,29.40
2018-01-08T11:51:41.057Z,28.80
2018-01-08T11:54:08.605Z,34.07
2018-01-08T11:56:36.148Z,28.60
2018-01-08T11:59:04.420Z,29.87
2018-01-08T12:01:33.092Z,30.80
2018-01-08T12:04:00.600Z,28.73
2018-01-08T12:06:28.104Z,29.10
2018-01-08T12:08:55.644Z,27.57
2018-01-08T12:11:23.164Z,28.27
2018-01-08T12:13:50.718Z,25.50
2018-01-08T12:16:18.229Z,26.43
2018-01-08T12:18:45.785Z,27.73
2018-01-08T12:21:13.319Z,28.83
2018-01-08T12:23:41.629Z,29.63
2018-01-08T12:26:09.224Z,25.10
2018-01-08T12:28:36.764Z,38.70
2018-01-08T12:31:05.060Z,29.20
2018-01-08T12:33:33.378Z,22.17
2018-01-08T12:36:00.900Z,25.77
2018-01-08T12:38:28.418Z,24.83
2018-01-08T12:40:55.944Z,28.37
2018-01-08T12:43:23.486Z,26.63
2018-01-08T12:45:51.048Z,22.77
2018-01-08T12:48:18.556Z,24.43
2018-01-08T12:50:46.076Z,24.27
2018-01-08T12:53:13.614Z,21.90
2018-01-08T12:55:41.127Z,24.50
2018-01-08T12:58:08.664Z,23.53
2018-01-08T13:00:36.227Z,25.30
2018-01-08T13:03:03.767Z,24.83
2018-01-08T13:05:31.307Z,22.67
2018-01-08T13:07:58.814Z,26.13
2018-01-08T13:10:26.341Z,22.87
2018-01-08T13:12:53.860Z,21.77
2018-01-08T13:15:21.409Z,23.10
2018-01-08T13:17:48.932Z,25.33
2018-01-08T13:20:16.488Z,24.70
2018-01-08T13:22:44.064Z,22.80
2018-01-08T13:25:11.595Z,20.27
2018-01-08T13:27:39.917Z,21.97
2018-01-08T13:30:07.498Z,21.23
2018-01-08T13:32:35.827Z,23.97
2018-01-08T13:35:03.348Z,20.53
2018-01-08T13:37:30.895Z,19.43
2018-01-08T13:39:59.188Z,22.00
2018-01-08T13:42:26.717Z,21.20
2018-01-08T13:44:55.018Z,22.70
2018-01-08T13:47:22.534Z,22.70
2018-01-08T13:49:50.079Z,21.73
2018-01-08T13:52:17.591Z,19.20
2018-01-08T13:54:45.105Z,19.33
2018-01-08T13:57:12.653Z,19.50
2018-01-08T13:59:40.233Z,18.27
2018-01-08T14:02:07.795Z,20.97
2018-01-08T14:04:35.311Z,20.30
2018-01-08T14:07:05.610Z,18.98
2018-01-08T14:09:33.177Z,23.40
2018-01-08T14:12:00.782Z,22.60
2018-01-08T14:14:28.343Z,16.60
2018-01-08T14:16:55.915Z,20.60
2018-01-08T14:19:23.440Z,17.50
2018-01-08T14:21:51.735Z,18.60
2018-01-08T14:24:19.278Z,18.50
2018-01-08T14:26:46.874Z,18.30
2018-01-08T14:29:14.401Z,21.57
2018-01-08T14:31:41.924Z,18.02
2018-01-08T14:34:09.481Z,20.97
2018-01-08T14:36:37.026Z,21.50
2018-01-08T14:39:04.537Z,21.97
2018-01-08T14:41:32.143Z,20.20
2018-01-08T14:43:59.672Z,20.62
2018-01-08T14:46:27.198Z,19.90
2018-01-08T14:48:54.735Z,18.23
2018-01-08T14:51:22.294Z,20.53
2018-01-08T14:53:49.826Z,20.20
2018-01-08T14:56:18.222Z,19.85
2018-01-08T14:58:45.770Z,20.30
2018-01-08T15:01:14.082Z,21.75
2018-01-08T15:03:41.611Z,18.90
2018-01-08T15:06:09.907Z,17.27
2018-01-08T15:08:37.458Z,18.27
2018-01-08T15:11:05.573Z,19.52
2018-01-08T15:13:33.151Z,20.23
2018-01-08T15:16:00.924Z,18.05
2018-01-08T15:18:28.483Z,19.30
2018-01-08T15:20:56.011Z,22.42
2018-01-08T15:23:23.558Z,19.67
2018-01-08T15:25:51.073Z,21.07
2018-01-08T15:28:19.368Z,18.73
2018-01-08T15:30:46.890Z,19.80
2018-01-08T15:33:14.401Z,21.27
2018-01-08T15:35:41.968Z,21.33
2018-01-08T15:38:09.498Z,18.42
2018-01-08T15:40:37.026Z,20.75
2018-01-08T15:43:04.558Z,18.85
2018-01-08T15:45:32.064Z,19.47
2018-01-08T15:48:01.092Z,20.67
2018-01-08T15:50:28.626Z,18.23
2018-01-08T15:52:56.165Z,20.42
2018-01-08T15:55:24.485Z,20.55
2018-01-08T15:57:52.003Z,18.70
2018-01-08T16:00:20.316Z,22.93
2018-01-08T16:02:47.890Z,21.50
2018-01-08T16:05:15.497Z,23.20
2018-01-08T16:07:43.928Z,21.50
2018-01-08T16:10:11.851Z,18.73
2018-01-08T16:12:39.781Z,22.25
2018-01-08T16:15:07.422Z,19.58
2018-01-08T16:17:34.948Z,16.95
2018-01-08T16:20:03.276Z,20.80
2018-01-08T16:22:30.786Z,18.58
2018-01-08T16:24:58.319Z,19.23
2018-01-08T16:27:25.877Z,20.17
2018-01-08T16:29:53.403Z,20.10
2018-01-08T16:32:20.928Z,19.60
2018-01-08T16:34:48.491Z,17.55
2018-01-08T16:37:16.045Z,20.12
2018-01-08T16:39:43.618Z,20.52
2018-01-08T16:42:11.147Z,20.45
2018-01-08T16:44:39.411Z,20.00
2018-01-08T16:47:06.936Z,19.55
2018-01-08T16:49:34.499Z,22.13
2018-01-08T16:52:02.023Z,21.30
2018-01-08T16:54:29.540Z,21.15
2018-01-08T16:56:57.105Z,21.40
2018-01-08T16:59:24.639Z,19.30
2018-01-08T17:01:52.196Z,19.25
2018-01-08T17:04:19.752Z,19.00
2018-01-08T17:06:47.265Z,18.65
2018-01-08T17:09:14.821Z,19.77
2018-01-08T17:11:43.099Z,18.25
2018-01-08T17:14:10.656Z,20.23
2018-01-08T17:16:38.931Z,20.17
2018-01-08T17:19:07.239Z,18.73
2018-01-08T17:21:34.834Z,19.03
2018-01-08T17:24:02.359Z,20.70
2018-01-08T17:26:29.885Z,18.25
2018-01-08T17:28:58.198Z,18.48
2018-01-08T17:31:25.695Z,19.27
2018-01-08T17:33:53.251Z,22.25
2018-01-08T17:36:20.801Z,17.83
2018-01-08T17:38:48.344Z,18.70
2018-01-08T17:41:15.872Z,18.42
2018-01-08T17:43:43.397Z,20.35
2018-01-08T17:46:10.946Z,17.83
2018-01-08T17:48:38.482Z,21.42
2018-01-08T17:51:06.011Z,18.02
2018-01-08T17:53:33.566Z,21.52
2018-01-08T17:56:01.107Z,18.65
2018-01-08T17:58:29.397Z,20.20
2018-01-08T18:00:56.955Z,19.37
2018-01-08T18:03:24.465Z,23.23
2018-01-08T18:05:52.108Z,18.97
2018-01-08T18:08:19.600Z,16.87
2018-01-08T18:10:47.124Z,24.70
2018-01-08T18:13:14.664Z,18.53
2018-01-08T18:15:42.188Z,19.42
2018-01-08T18:18:10.510Z,18.00
2018-01-08T18:20:38.018Z,23.30
2018-01-08T18:23:06.297Z,19.80
2018-01-08T18:25:34.637Z,19.53
2018-01-08T18:28:02.184Z,19.97
2018-01-08T18:30:29.735Z,19.83
2018-01-08T18:32:57.263Z,21.27
2018-01-08T18:35:24.787Z,18.43
2018-01-08T18:37:52.313Z,21.87
2018-01-08T18:40:19.866Z,19.08
2018-01-08T18:42:47.377Z,23.10
2018-01-08T18:45:15.015Z,16.92
2018-01-08T18:47:42.564Z,17.55
2018-01-08T18:50:10.178Z,18.63
2018-01-08T18:52:38.497Z,18.47
2018-01-08T18:55:06.015Z,18.30
2018-01-08T18:57:33.552Z,21.57
2018-01-08T19:00:01.094Z,20.10
2018-01-08T19:02:28.643Z,21.63
2018-01-08T19:04:56.212Z,19.20
2018-01-08T19:07:23.727Z,21.63
2018-01-08T19:09:51.636Z,18.20
2018-01-08T19:12:19.524Z,19.77
2018-01-08T19:14:47.088Z,21.55
2018-01-08T19:17:14.638Z,22.60
2018-01-08T19:19:42.255Z,22.47
2018-01-08T19:22:10.429Z,18.10
2018-01-08T19:24:38.076Z,21.57
2018-01-08T19:27:05.689Z,18.57
2018-01-08T19:29:33.244Z,18.70
2018-01-08T19:32:00.799Z,21.07
2018-01-08T19:34:28.425Z,21.10
2018-01-08T19:36:56.812Z,20.37
2018-01-08T19:39:24.379Z,20.87
2018-01-08T19:41:51.895Z,19.50
2018-01-08T19:44:20.212Z,19.63
2018-01-08T19:46:47.867Z,16.52
2018-01-08T19:49:15.396Z,23.80
2018-01-08T19:51:43.663Z,26.63
2018-01-08T19:54:11.979Z,21.50
2018-01-08T19:56:39.497Z,20.10
2018-01-08T19:59:07.166Z,19.00
2018-01-08T20:01:34.727Z,24.33
2018-01-08T20:04:02.304Z,24.67
2018-01-08T20:06:29.890Z,20.90
2018-01-08T20:08:57.536Z,20.35
2018-01-08T20:11:25.072Z,20.80
2018-01-08T20:13:52.605Z,20.20
2018-01-08T20:16:20.159Z,20.40
2018-01-08T20:18:47.683Z,20.80
2018-01-08T20:21:15.218Z,20.07
2018-01-08T20:23:42.897Z,22.83
2018-01-08T20:26:10.466Z,20.42
2018-01-08T20:28:38.020Z,19.67
2018-01-08T20:31:05.542Z,23.62
2018-01-08T20:33:33.166Z,22.90
2018-01-08T20:36:00.774Z,19.33
2018-01-08T20:38:28.331Z,20.45
2018-01-08T20:43:41.079Z,24.33
2018-01-08T20:46:08.653Z,25.33
2018-01-08T20:48:36.228Z,21.75
2018-01-08T20:51:03.813Z,22.87
2018-01-08T20:53:31.430Z,21.25
2018-01-08T20:55:58.972Z,22.67
2018-01-08T20:58:26.476Z,21.67
2018-01-08T21:00:54.023Z,22.42
2018-01-08T21:03:21.563Z,25.27
2018-01-08T21:05:49.202Z,21.67
2018-01-08T21:08:17.039Z,24.30
2018-01-08T21:10:44.572Z,20.97
2018-01-08T21:13:12.120Z,24.12
2018-01-08T21:15:40.208Z,22.67
2018-01-08T21:18:07.829Z,23.40
2018-01-08T21:20:36.137Z,25.00
2018-01-08T21:23:03.683Z,23.42
2018-01-08T21:25:31.260Z,22.23
2018-01-08T21:27:58.833Z,24.67
2018-01-08T21:30:26.356Z,27.58
2018-01-08T21:32:54.670Z,23.53
2018-01-08T21:35:22.251Z,25.17
2018-01-08T21:37:50.551Z,22.80
2018-01-08T21:40:18.086Z,23.92
2018-01-08T21:42:46.425Z,23.80
2018-01-08T21:45:13.990Z,22.17
2018-01-08T21:47:41.574Z,22.75
2018-01-08T21:50:09.901Z,25.00
2018-01-08T21:52:37.463Z,39.97
2018-01-08T21:55:04.980Z,22.70
2018-01-08T21:57:33.337Z,22.73
2018-01-08T22:00:00.930Z,26.60
2018-01-08T22:02:28.462Z,22.40
2018-01-08T22:04:55.991Z,20.50
2018-01-08T22:07:23.539Z,25.85
2018-01-08T22:09:51.129Z,22.87
2018-01-08T22:12:18.658Z,24.25
2018-01-08T22:14:47.622Z,23.25
2018-01-08T22:17:15.189Z,22.52
2018-01-08T22:19:42.772Z,25.37
2018-01-08T22:22:10.335Z,26.52
2018-01-08T22:24:37.900Z,22.92
2018-01-08T22:27:05.458Z,23.60
2018-01-08T22:29:32.982Z,22.73
2018-01-08T22:32:00.592Z,23.95
2018-01-08T22:34:28.183Z,21.40
2018-01-08T22:36:56.480Z,24.77
2018-01-08T22:39:24.072Z,25.30
2018-01-08T22:41:51.996Z,24.27
2018-01-08T22:44:19.593Z,22.80
2018-01-08T22:46:47.134Z,26.95
2018-01-08T22:49:14.680Z,24.20
2018-01-08T22:51:42.596Z,22.02
2018-01-08T22:54:10.154Z,24.30
2018-01-08T22:56:38.465Z,21.50
2018-01-08T22:59:06.784Z,26.07
2018-01-08T23:01:34.355Z,23.67
2018-01-08T23:04:01.914Z,23.90
2018-01-08T23:06:29.480Z,24.33
2018-01-08T23:08:57.000Z,23.58
2018-01-08T23:11:24.881Z,26.65
2018-01-08T23:13:52.399Z,25.48
2018-01-08T23:16:20.687Z,23.45
2018-01-08T23:18:48.990Z,24.17
2018-01-08T23:21:17.299Z,27.67
2018-01-08T23:23:44.839Z,25.05
2018-01-08T23:26:12.372Z,27.55
2018-01-08T23:28:39.927Z,27.55
2018-01-08T23:31:07.438Z,23.23
2018-01-08T23:33:34.966Z,28.08
2018-01-08T23:36:02.508Z,26.40
2018-01-08T23:38:30.018Z,23.52
2018-01-08T23:40:57.545Z,26.50
2018-01-08T23:43:25.055Z,21.60
2018-01-08T23:45:53.352Z,32.00
2018-01-08T23:48:20.872Z,30.52
2018-01-08T23:50:48.426Z,23.98
2018-01-08T23:53:15.952Z,24.65
2018-01-08T23:55:43.462Z,25.75
2018-01-08T23:58:11.002Z,22.23
